createdAt,value
2018-06-05T00:00:59.715Z,99458.00
2018-06-05T00:03:27.302Z,99457.00
2018-06-05T00:05:54.929Z,99460.00
2018-06-05T00:08:23.442Z,99458.00
2018-06-05T00:10:51.035Z,99455.00
2018-06-05T00:13:18.583Z,99459.00
2018-06-05T00:15:46.181Z,99454.00
2018-06-05T00:18:13.805Z,99451.00
2018-06-05T00:20:41.448Z,99448.00
2018-06-05T00:23:08.987Z,99448.00
2018-06-05T00:25:36.595Z,99447.00
2018-06-05T00:28:04.335Z,99450.00
2018-06-05T00:30:31.944Z,99450.00
2018-06-05T00:32:59.494Z,99448.00
2018-06-05T00:35:27.106Z,99447.00
2018-06-05T00:37:54.649Z,99447.00
2018-06-05T00:40:22.229Z,99447.00
2018-06-05T00:42:49.839Z,99457.00
2018-06-05T00:45:17.404Z,99464.00
2018-06-05T00:47:45.009Z,99466.00
2018-06-05T00:50:12.605Z,99469.00
2018-06-05T00:52:40.300Z,99466.00
2018-06-05T00:55:07.928Z,99470.00
2018-06-05T00:57:35.857Z,99467.00
2018-06-05T01:00:04.139Z,99466.00
2018-06-05T01:02:31.724Z,99466.00
2018-06-05T01:04:59.296Z,99459.00
2018-06-05T01:07:26.836Z,99461.00
2018-06-05T01:09:54.400Z,99456.00
2018-06-05T01:12:21.964Z,99459.00
2018-06-05T01:14:49.603Z,99458.00
2018-06-05T01:17:17.187Z,99458.00
2018-06-05T01:19:44.783Z,99456.00
2018-06-05T01:22:12.665Z,99458.00
2018-06-05T01:24:40.244Z,99456.00
2018-06-05T01:27:11.808Z,99458.00
2018-06-05T01:29:39.393Z,99458.00
2018-06-05T01:32:06.986Z,99462.00
2018-06-05T01:34:34.546Z,99458.00
2018-06-05T01:37:02.105Z,99465.00
2018-06-05T01:39:29.663Z,99463.00
2018-06-05T01:41:57.237Z,99466.00
2018-06-05T01:44:24.809Z,99472.00
2018-06-05T01:46:52.427Z,99474.00
2018-06-05T01:49:20.008Z,99469.00
2018-06-05T01:51:47.604Z,99466.00
2018-06-05T01:54:15.186Z,99470.00
2018-06-05T01:56:42.781Z,99463.00
2018-06-05T01:59:10.352Z,99462.00
2018-06-05T02:01:37.915Z,99466.00
2018-06-05T02:04:05.468Z,99467.00
2018-06-05T02:06:33.058Z,99471.00
2018-06-05T02:09:00.741Z,99468.00
2018-06-05T02:11:28.320Z,99471.00
2018-06-05T02:13:55.883Z,99473.00
2018-06-05T02:16:23.445Z,99477.00
2018-06-05T02:18:51.057Z,99475.00
2018-06-05T02:21:18.660Z,99473.00
2018-06-05T02:23:46.433Z,99475.00
2018-06-05T02:26:14.011Z,99475.00
2018-06-05T02:28:41.615Z,99476.00
2018-06-05T02:31:09.228Z,99479.00
2018-06-05T02:33:36.825Z,99483.00
2018-06-05T02:36:04.652Z,99483.00
2018-06-05T02:38:32.237Z,99489.00
2018-06-05T02:40:59.862Z,99492.00
2018-06-05T02:43:27.383Z,99490.00
2018-06-05T02:45:54.973Z,99491.00
2018-06-05T02:48:22.865Z,99489.00
2018-06-05T02:50:50.463Z,99493.00
2018-06-05T02:53:18.063Z,99495.00
2018-06-05T02:55:45.910Z,99496.00
2018-06-05T02:58:13.476Z,99502.00
2018-06-05T03:00:41.136Z,99503.00
2018-06-05T03:03:08.807Z,99508.00
2018-06-05T03:05:36.448Z,99511.00
2018-06-05T03:08:04.150Z,99514.00
2018-06-05T03:10:31.747Z,99518.00
2018-06-05T03:12:59.357Z,99527.00
2018-06-05T03:15:27.238Z,99522.00
2018-06-05T03:17:54.838Z,99521.00
2018-06-05T03:20:22.423Z,99523.00
2018-06-05T03:22:50.010Z,99523.00
2018-06-05T03:25:17.612Z,99531.00
2018-06-05T03:27:45.200Z,99534.00
2018-06-05T03:30:12.836Z,99534.00
2018-06-05T03:32:40.490Z,99538.00
2018-06-05T03:35:08.126Z,99541.00
2018-06-05T03:37:35.747Z,99546.00
2018-06-05T03:40:03.364Z,99541.00
2018-06-05T03:42:31.917Z,99542.00
2018-06-05T03:44:59.473Z,99544.00
2018-06-05T03:47:27.237Z,99544.00
2018-06-05T03:49:54.861Z,99554.00
2018-06-05T03:52:22.437Z,99551.00
2018-06-05T03:54:50.081Z,99550.00
2018-06-05T03:57:18.072Z,99549.00
2018-06-05T03:59:45.705Z,99546.00
2018-06-05T04:02:13.402Z,99551.00
2018-06-05T04:04:41.030Z,99556.00
2018-06-05T04:07:08.709Z,99551.00
2018-06-05T04:09:36.372Z,99557.00
2018-06-05T04:12:03.953Z,99557.00
2018-06-05T04:14:31.593Z,99560.00
2018-06-05T04:16:59.224Z,99550.00
2018-06-05T04:19:27.434Z,99558.00
2018-06-05T04:21:55.049Z,99557.00
2018-06-05T04:24:22.720Z,99561.00
2018-06-05T04:26:50.370Z,99565.00
2018-06-05T04:29:17.935Z,99567.00
2018-06-05T04:31:45.533Z,99572.00
2018-06-05T04:34:13.143Z,99573.00
2018-06-05T04:36:40.765Z,99575.00
2018-06-05T04:39:08.410Z,99576.00
2018-06-05T04:41:36.026Z,99580.00
2018-06-05T04:44:03.633Z,99585.00
2018-06-05T04:46:31.233Z,99589.00
2018-06-05T04:48:58.864Z,99590.00
2018-06-05T04:51:26.474Z,99589.00
2018-06-05T04:53:54.219Z,99592.00
2018-06-05T04:56:21.848Z,99593.00
2018-06-05T04:58:49.539Z,99595.00
2018-06-05T05:01:17.112Z,99605.00
2018-06-05T05:03:44.683Z,99605.00
2018-06-05T05:06:12.270Z,99603.00
2018-06-05T05:08:40.492Z,99609.00
2018-06-05T05:11:08.144Z,99608.00
2018-06-05T05:13:35.766Z,99610.00
2018-06-05T05:16:03.609Z,99611.00
2018-06-05T05:18:31.259Z,99612.00
2018-06-05T05:20:58.909Z,99611.00
2018-06-05T05:23:26.482Z,99611.00
2018-06-05T05:25:54.431Z,99620.00
2018-06-05T05:28:22.033Z,99620.00
2018-06-05T05:30:49.708Z,99623.00
2018-06-05T05:33:17.335Z,99620.00
2018-06-05T05:35:44.940Z,99627.00
2018-06-05T05:38:12.505Z,99622.00
2018-06-05T05:40:40.074Z,99626.00
2018-06-05T05:43:07.704Z,99628.00
2018-06-05T05:45:35.328Z,99628.00
2018-06-05T05:48:03.009Z,99626.00
2018-06-05T05:50:30.601Z,99622.00
2018-06-05T05:52:58.205Z,99626.00
2018-06-05T05:55:25.779Z,99628.00
2018-06-05T05:57:53.457Z,99629.00
2018-06-05T06:00:21.287Z,99630.00
2018-06-05T06:02:48.904Z,99630.00
2018-06-05T06:05:16.500Z,99626.00
2018-06-05T06:07:44.133Z,99631.00
2018-06-05T06:10:11.757Z,99633.00
2018-06-05T06:12:39.332Z,99633.00
2018-06-05T06:15:07.020Z,99631.00
2018-06-05T06:17:34.591Z,99630.00
2018-06-05T06:20:02.189Z,99634.00
2018-06-05T06:22:29.748Z,99636.00
2018-06-05T06:24:57.401Z,99635.00
2018-06-05T06:27:25.059Z,99638.00
2018-06-05T06:29:52.675Z,99640.00
2018-06-05T06:32:20.318Z,99643.00
2018-06-05T06:34:47.919Z,99647.00
2018-06-05T06:37:15.520Z,99642.00
2018-06-05T06:39:43.107Z,99644.00
2018-06-05T06:42:10.682Z,99644.00
2018-06-05T06:44:38.277Z,99650.00
2018-06-05T06:47:05.850Z,99650.00
2018-06-05T06:49:33.484Z,99654.00
2018-06-05T06:52:01.079Z,99652.00
2018-06-05T06:54:28.650Z,99658.00
2018-06-05T06:56:56.209Z,99660.00
2018-06-05T06:59:24.053Z,99664.00
2018-06-05T07:01:52.086Z,99663.00
2018-06-05T07:04:19.699Z,99661.00
2018-06-05T07:06:47.257Z,99666.00
2018-06-05T07:09:14.861Z,99668.00
2018-06-05T07:11:42.481Z,99661.00
2018-06-05T07:14:10.080Z,99669.00
2018-06-05T07:16:38.489Z,99667.00
2018-06-05T07:19:06.151Z,99665.00
2018-06-05T07:21:33.730Z,99666.00
2018-06-05T07:24:01.410Z,99669.00
2018-06-05T07:26:28.949Z,99671.00
2018-06-05T07:28:56.602Z,99677.00
2018-06-05T07:31:24.192Z,99674.00
2018-06-05T07:33:51.801Z,99676.00
2018-06-05T07:36:19.425Z,99678.00
2018-06-05T07:38:47.060Z,99681.00
2018-06-05T07:41:14.719Z,99679.00
2018-06-05T07:43:42.586Z,99681.00
2018-06-05T07:46:10.169Z,99685.00
2018-06-05T07:48:37.737Z,99689.00
2018-06-05T07:51:05.422Z,99692.00
2018-06-05T07:53:32.994Z,99694.00
2018-06-05T07:56:00.563Z,99693.00
2018-06-05T07:58:28.129Z,99687.00
2018-06-05T08:00:55.707Z,99688.00
2018-06-05T08:03:23.320Z,99686.00
2018-06-05T08:05:50.921Z,99689.00
2018-06-05T08:08:18.525Z,99693.00
2018-06-05T08:10:46.092Z,99694.00
2018-06-05T08:13:13.667Z,99696.00
2018-06-05T08:15:41.326Z,99702.00
2018-06-05T08:18:08.935Z,99700.00
2018-06-05T08:20:36.581Z,99702.00
2018-06-05T08:23:04.203Z,99701.00
2018-06-05T08:25:31.787Z,99707.00
2018-06-05T08:27:59.432Z,99703.00
2018-06-05T08:30:27.070Z,99707.00
2018-06-05T08:32:54.719Z,99705.00
2018-06-05T08:35:22.293Z,99711.00
2018-06-05T08:37:50.852Z,99710.00
2018-06-05T08:40:18.456Z,99717.00
2018-06-05T08:42:46.136Z,99717.00
2018-06-05T08:45:13.875Z,99717.00
2018-06-05T08:47:41.434Z,99716.00
2018-06-05T08:50:09.104Z,99716.00
2018-06-05T08:52:36.698Z,99714.00
2018-06-05T08:55:04.618Z,99714.00
2018-06-05T08:57:32.242Z,99718.00
2018-06-05T08:59:59.911Z,99715.00
2018-06-05T09:02:27.428Z,99718.00
2018-06-05T09:04:55.016Z,99720.00
2018-06-05T09:07:22.640Z,99719.00
2018-06-05T09:09:50.241Z,99722.00
2018-06-05T09:12:17.892Z,99725.00
2018-06-05T09:14:45.476Z,99727.00
2018-06-05T09:17:13.037Z,99727.00
2018-06-05T09:19:40.610Z,99733.00
2018-06-05T09:22:08.185Z,99732.00
2018-06-05T09:24:35.732Z,99734.00
2018-06-05T09:27:03.393Z,99741.00
2018-06-05T09:29:31.018Z,99744.00
2018-06-05T09:31:58.631Z,99745.00
2018-06-05T09:34:26.492Z,99744.00
2018-06-05T09:36:54.056Z,99742.00
2018-06-05T09:39:21.698Z,99747.00
2018-06-05T09:41:49.300Z,99752.00
2018-06-05T09:44:16.884Z,99756.00
2018-06-05T09:46:44.508Z,99753.00
2018-06-05T09:49:12.100Z,99754.00
2018-06-05T09:51:39.724Z,99756.00
2018-06-05T09:54:07.333Z,99756.00
2018-06-05T09:56:34.933Z,99757.00
2018-06-05T09:59:02.790Z,99761.00
2018-06-05T10:01:30.380Z,99761.00
2018-06-05T10:03:58.079Z,99759.00
2018-06-05T10:06:25.685Z,99757.00
2018-06-05T10:08:53.309Z,99760.00
2018-06-05T10:11:20.994Z,99762.00
2018-06-05T10:13:48.553Z,99760.00
2018-06-05T10:16:16.131Z,99761.00
2018-06-05T10:18:43.716Z,99761.00
2018-06-05T10:21:11.349Z,99762.00
2018-06-05T10:23:38.951Z,99764.00
2018-06-05T10:26:06.562Z,99770.00
2018-06-05T10:28:34.164Z,99762.00
2018-06-05T10:31:01.788Z,99764.00
2018-06-05T10:33:29.386Z,99764.00
2018-06-05T10:35:57.692Z,99764.00
2018-06-05T10:38:25.300Z,99762.00
2018-06-05T10:40:53.283Z,99762.00
2018-06-05T10:43:20.913Z,99761.00
2018-06-05T10:45:48.490Z,99757.00
2018-06-05T10:48:16.034Z,99752.00
2018-06-05T10:50:43.638Z,99753.00
2018-06-05T10:53:11.247Z,99753.00
2018-06-05T10:55:38.861Z,99752.00
2018-06-05T10:58:06.475Z,99751.00
2018-06-05T11:00:34.110Z,99747.00
2018-06-05T11:03:01.759Z,99747.00
2018-06-05T11:05:29.361Z,99750.00
2018-06-05T11:07:56.948Z,99744.00
2018-06-05T11:10:24.542Z,99742.00
2018-06-05T11:12:52.177Z,99738.00
2018-06-05T11:15:19.812Z,99742.00
2018-06-05T11:17:47.422Z,99741.00
2018-06-05T11:20:15.894Z,99740.00
2018-06-05T11:22:43.612Z,99742.00
2018-06-05T11:25:11.190Z,99739.00
2018-06-05T11:27:38.785Z,99738.00
2018-06-05T11:30:06.431Z,99740.00
2018-06-05T11:32:33.995Z,99742.00
2018-06-05T11:35:01.590Z,99741.00
2018-06-05T11:37:30.128Z,99740.00
2018-06-05T11:39:59.823Z,99740.00
2018-06-05T11:42:27.411Z,99740.00
2018-06-05T11:44:54.982Z,99738.00
2018-06-05T11:47:22.590Z,99737.00
2018-06-05T11:49:50.179Z,99736.00
2018-06-05T11:52:17.774Z,99738.00
2018-06-05T11:54:45.360Z,99733.00
2018-06-05T11:57:13.603Z,99739.00
2018-06-05T11:59:41.190Z,99732.00
2018-06-05T12:02:08.777Z,99735.00
2018-06-05T12:04:36.406Z,99737.00
2018-06-05T12:07:04.029Z,99738.00
2018-06-05T12:09:31.635Z,99732.00
2018-06-05T12:11:59.245Z,99731.00
2018-06-05T12:14:26.839Z,99733.00
2018-06-05T12:16:54.438Z,99727.00
2018-06-05T12:19:22.063Z,99719.00
2018-06-05T12:21:49.862Z,99721.00
2018-06-05T12:24:17.453Z,99714.00
2018-06-05T12:26:45.090Z,99709.00
2018-06-05T12:29:12.633Z,99709.00
2018-06-05T12:31:40.234Z,99703.00
2018-06-05T12:34:07.835Z,99697.00
2018-06-05T12:36:35.876Z,99693.00
2018-06-05T12:39:07.616Z,99691.00
2018-06-05T12:41:35.287Z,99695.00
2018-06-05T12:44:03.493Z,99695.00
2018-06-05T12:46:31.100Z,99693.00
2018-06-05T12:48:58.789Z,99699.00
2018-06-05T12:51:26.368Z,99702.00
2018-06-05T12:53:53.919Z,99700.00
2018-06-05T12:56:21.590Z,99701.00
2018-06-05T12:58:49.183Z,99695.00
2018-06-05T13:01:16.739Z,99698.00
2018-06-05T13:03:44.311Z,99696.00
2018-06-05T13:06:11.990Z,99695.00
2018-06-05T13:08:39.593Z,99697.00
2018-06-05T13:11:07.183Z,99696.00
2018-06-05T13:13:34.729Z,99697.00
2018-06-05T13:16:02.344Z,99696.00
2018-06-05T13:18:29.965Z,99699.00
2018-06-05T13:20:57.516Z,99697.00
2018-06-05T13:23:25.210Z,99694.00
2018-06-05T13:25:52.829Z,99696.00
2018-06-05T13:28:20.421Z,99693.00
2018-06-05T13:30:48.001Z,99695.00
2018-06-05T13:33:15.556Z,99690.00
2018-06-05T13:35:43.135Z,99692.00
2018-06-05T13:40:45.380Z,99691.00
2018-06-05T13:43:12.945Z,99687.00
2018-06-05T13:45:40.503Z,99697.00
2018-06-05T13:48:08.141Z,99694.00
2018-06-05T13:50:35.767Z,99685.00
2018-06-05T13:53:03.357Z,99688.00
2018-06-05T13:55:30.941Z,99687.00
2018-06-05T13:57:59.299Z,99690.00
2018-06-05T14:00:26.859Z,99687.00
2018-06-05T14:02:54.501Z,99685.00
2018-06-05T14:05:22.061Z,99681.00
2018-06-05T14:07:49.728Z,99681.00
2018-06-05T14:10:17.284Z,99682.00
2018-06-05T14:12:44.855Z,99682.00
2018-06-05T14:15:12.429Z,99676.00
2018-06-05T14:17:39.985Z,99678.00
2018-06-05T14:20:07.528Z,99680.00
2018-06-05T14:22:35.125Z,99676.00
2018-06-05T14:25:02.821Z,99673.00
2018-06-05T14:27:30.375Z,99672.00
2018-06-05T14:29:58.054Z,99673.00
2018-06-05T14:32:25.701Z,99669.00
2018-06-05T14:34:53.348Z,99673.00
2018-06-05T14:37:20.925Z,99673.00
2018-06-05T14:39:48.508Z,99668.00
2018-06-05T14:42:16.442Z,99668.00
2018-06-05T14:44:44.043Z,99669.00
2018-06-05T14:47:11.672Z,99668.00
2018-06-05T14:49:39.334Z,99668.00
2018-06-05T14:52:07.853Z,99669.00
2018-06-05T14:54:35.442Z,99663.00
2018-06-05T14:57:03.082Z,99662.00
2018-06-05T14:59:30.662Z,99662.00
2018-06-05T15:01:58.362Z,99658.00
2018-06-05T15:04:26.020Z,99655.00
2018-06-05T15:06:53.620Z,99656.00
2018-06-05T15:09:21.233Z,99647.00
2018-06-05T15:11:48.824Z,99651.00
2018-06-05T15:14:16.422Z,99649.00
2018-06-05T15:16:44.005Z,99645.00
2018-06-05T15:19:12.613Z,99647.00
2018-06-05T15:21:40.293Z,99650.00
2018-06-05T15:24:07.864Z,99650.00
2018-06-05T15:26:35.500Z,99657.00
2018-06-05T15:29:03.123Z,99656.00
2018-06-05T15:31:30.757Z,99654.00
2018-06-05T15:33:58.395Z,99648.00
2018-06-05T15:36:25.977Z,99652.00
2018-06-05T15:38:53.594Z,99651.00
2018-06-05T15:41:21.290Z,99654.00
2018-06-05T15:43:48.909Z,99656.00
2018-06-05T15:46:16.421Z,99649.00
2018-06-05T15:48:44.006Z,99652.00
2018-06-05T15:51:11.570Z,99652.00
2018-06-05T15:53:39.923Z,99647.00
2018-06-05T15:56:07.610Z,99645.00
2018-06-05T15:58:35.225Z,99646.00
2018-06-05T16:01:02.811Z,99647.00
2018-06-05T16:03:31.073Z,99640.00
2018-06-05T16:05:58.852Z,99640.00
2018-06-05T16:08:26.408Z,99641.00
2018-06-05T16:10:54.045Z,99637.00
2018-06-05T16:13:21.690Z,99639.00
2018-06-05T16:15:49.309Z,99638.00
2018-06-05T16:18:16.886Z,99635.00
2018-06-05T16:20:44.523Z,99633.00
2018-06-05T16:23:12.160Z,99633.00
2018-06-05T16:25:39.721Z,99629.00
2018-06-05T16:28:07.364Z,99631.00
2018-06-05T16:30:35.002Z,99632.00
2018-06-05T16:33:02.606Z,99623.00
2018-06-05T16:35:30.204Z,99630.00
2018-06-05T16:37:59.112Z,99631.00
2018-06-05T16:40:27.324Z,99635.00
2018-06-05T16:42:55.698Z,99630.00
2018-06-05T16:45:23.417Z,99630.00
2018-06-05T16:47:51.008Z,99626.00
2018-06-05T16:50:18.607Z,99628.00
2018-06-05T16:52:46.152Z,99627.00
2018-06-05T16:55:13.703Z,99631.00
2018-06-05T16:57:41.301Z,99627.00
2018-06-05T17:00:08.909Z,99635.00
2018-06-05T17:02:36.492Z,99634.00
2018-06-05T17:05:04.131Z,99635.00
2018-06-05T17:07:31.787Z,99635.00
2018-06-05T17:10:00.021Z,99635.00
2018-06-05T17:12:27.628Z,99638.00
2018-06-05T17:14:55.237Z,99641.00
2018-06-05T17:17:22.858Z,99644.00
2018-06-05T17:19:50.544Z,99646.00
2018-06-05T17:22:18.169Z,99642.00
2018-06-05T17:24:46.919Z,99646.00
2018-06-05T17:27:14.973Z,99646.00
2018-06-05T17:29:43.200Z,99645.00
2018-06-05T17:32:11.844Z,99643.00
2018-06-05T17:34:40.455Z,99650.00
2018-06-05T17:37:08.232Z,99645.00
2018-06-05T17:39:36.748Z,99650.00
2018-06-05T17:42:06.879Z,99650.00
2018-06-05T17:44:34.892Z,99645.00
2018-06-05T17:47:02.992Z,99642.00
2018-06-05T17:49:31.044Z,99651.00
2018-06-05T17:51:59.160Z,99653.00
2018-06-05T17:54:27.042Z,99653.00
2018-06-05T17:56:54.946Z,99649.00
2018-06-05T17:59:23.938Z,99650.00
2018-06-05T18:01:51.757Z,99655.00
2018-06-05T18:04:21.991Z,99653.00
2018-06-05T18:06:49.660Z,99655.00
2018-06-05T18:09:17.361Z,99649.00
2018-06-05T18:11:45.186Z,99658.00
2018-06-05T18:14:13.034Z,99655.00
2018-06-05T18:16:40.898Z,99655.00
2018-06-05T18:19:08.621Z,99660.00
2018-06-05T18:21:37.050Z,99658.00
2018-06-05T18:24:04.974Z,99661.00
2018-06-05T18:26:32.653Z,99663.00
2018-06-05T18:29:00.438Z,99665.00
2018-06-05T18:31:28.728Z,99669.00
2018-06-05T18:33:56.413Z,99668.00
2018-06-05T18:36:24.102Z,99670.00
2018-06-05T18:38:52.079Z,99668.00
2018-06-05T18:41:20.003Z,99668.00
2018-06-05T18:43:47.805Z,99667.00
2018-06-05T18:46:15.641Z,99673.00
2018-06-05T18:48:44.139Z,99669.00
2018-06-05T18:51:11.942Z,99672.00
2018-06-05T18:53:39.673Z,99671.00
2018-06-05T18:56:07.309Z,99677.00
2018-06-05T18:58:34.873Z,99679.00
2018-06-05T19:01:02.670Z,99688.00
2018-06-05T19:03:30.271Z,99691.00
2018-06-05T19:05:58.393Z,99696.00
2018-06-05T19:08:26.033Z,99699.00
2018-06-05T19:10:54.378Z,99696.00
2018-06-05T19:13:22.589Z,99700.00
2018-06-05T19:15:50.321Z,99702.00
2018-06-05T19:18:18.026Z,99702.00
2018-06-05T19:20:46.556Z,99706.00
2018-06-05T19:23:14.240Z,99708.00
2018-06-05T19:25:41.890Z,99707.00
2018-06-05T19:28:09.567Z,99710.00
2018-06-05T19:30:37.215Z,99716.00
2018-06-05T19:33:05.626Z,99720.00
2018-06-05T19:35:33.822Z,99718.00
2018-06-05T19:38:01.502Z,99721.00
2018-06-05T19:40:29.400Z,99721.00
2018-06-05T19:42:57.184Z,99720.00
2018-06-05T19:45:24.941Z,99728.00
2018-06-05T19:47:52.553Z,99732.00
2018-06-05T19:50:20.294Z,99743.00
2018-06-05T19:52:47.905Z,99743.00
2018-06-05T19:55:15.524Z,99745.00
2018-06-05T19:57:43.793Z,99741.00
2018-06-05T20:00:11.414Z,99744.00
2018-06-05T20:02:39.093Z,99751.00
2018-06-05T20:05:06.858Z,99751.00
2018-06-05T20:07:34.474Z,99753.00
2018-06-05T20:10:02.126Z,99752.00
2018-06-05T20:12:29.739Z,99753.00
2018-06-05T20:14:57.430Z,99759.00
2018-06-05T20:17:25.072Z,99762.00
2018-06-05T20:19:52.659Z,99760.00
2018-06-05T20:22:20.274Z,99763.00
2018-06-05T20:24:47.904Z,99764.00
2018-06-05T20:27:15.473Z,99764.00
2018-06-05T20:29:43.368Z,99767.00
2018-06-05T20:32:10.962Z,99770.00
2018-06-05T20:34:38.556Z,99769.00
2018-06-05T20:37:06.340Z,99772.00
2018-06-05T20:39:33.931Z,99773.00
2018-06-05T20:42:01.774Z,99772.00
2018-06-05T20:44:29.396Z,99777.00
2018-06-05T20:46:57.227Z,99775.00
2018-06-05T20:49:24.822Z,99769.00
2018-06-05T20:51:52.461Z,99767.00
2018-06-05T20:54:20.187Z,99769.00
2018-06-05T20:56:47.770Z,99767.00
2018-06-05T20:59:15.417Z,99769.00
2018-06-05T21:01:43.039Z,99767.00
2018-06-05T21:04:10.630Z,99768.00
2018-06-05T21:06:38.290Z,99773.00
2018-06-05T21:09:06.493Z,99775.00
2018-06-05T21:11:34.053Z,99780.00
2018-06-05T21:14:02.024Z,99779.00
2018-06-05T21:16:29.677Z,99789.00
2018-06-05T21:18:57.304Z,99789.00
2018-06-05T21:21:24.932Z,99785.00
2018-06-05T21:23:53.069Z,99789.00
2018-06-05T21:26:20.779Z,99793.00
2018-06-05T21:28:48.412Z,99796.00
2018-06-05T21:31:16.053Z,99796.00
2018-06-05T21:33:43.629Z,99801.00
2018-06-05T21:36:11.264Z,99808.00
2018-06-05T21:38:38.888Z,99815.00
2018-06-05T21:41:06.484Z,99819.00
2018-06-05T21:43:34.088Z,99824.00
2018-06-05T21:46:01.749Z,99819.00
2018-06-05T21:48:29.350Z,99829.00
2018-06-05T21:50:56.941Z,99827.00
2018-06-05T21:53:24.508Z,99834.00
2018-06-05T21:55:52.179Z,99833.00
2018-06-05T21:58:19.764Z,99840.00
2018-06-05T22:00:47.326Z,99843.00
2018-06-05T22:03:14.881Z,99842.00
2018-06-05T22:05:42.521Z,99838.00
2018-06-05T22:08:10.145Z,99843.00
2018-06-05T22:10:37.730Z,99847.00
2018-06-05T22:13:05.486Z,99843.00
2018-06-05T22:15:33.136Z,99846.00
2018-06-05T22:18:00.747Z,99847.00
2018-06-05T22:20:28.418Z,99852.00
2018-06-05T22:22:56.084Z,99851.00
2018-06-05T22:25:23.655Z,99849.00
2018-06-05T22:27:51.242Z,99845.00
2018-06-05T22:30:18.925Z,99843.00
2018-06-05T22:32:46.483Z,99846.00
2018-06-05T22:35:14.088Z,99844.00
2018-06-05T22:37:41.797Z,99852.00
2018-06-05T22:40:09.414Z,99849.00
2018-06-05T22:42:37.070Z,99851.00
2018-06-05T22:45:04.746Z,99844.00
2018-06-05T22:47:32.317Z,99844.00
2018-06-05T22:49:59.876Z,99843.00
2018-06-05T22:52:27.458Z,99842.00
2018-06-05T22:54:55.081Z,99850.00
2018-06-05T22:57:22.712Z,99843.00
2018-06-05T22:59:50.306Z,99848.00
2018-06-05T23:02:18.155Z,99841.00
2018-06-05T23:04:45.914Z,99848.00
2018-06-05T23:07:13.513Z,99856.00
2018-06-05T23:09:41.157Z,99854.00
2018-06-05T23:12:08.737Z,99860.00
2018-06-05T23:14:36.956Z,99866.00
2018-06-05T23:17:04.573Z,99871.00
2018-06-05T23:19:32.148Z,99874.00
2018-06-05T23:21:59.736Z,99878.00
2018-06-05T23:24:27.325Z,99875.00
2018-06-05T23:26:54.935Z,99879.00
2018-06-05T23:29:22.571Z,99871.00
2018-06-05T23:31:50.214Z,99876.00
2018-06-05T23:34:17.774Z,99867.00
2018-06-05T23:36:45.312Z,99870.00
2018-06-05T23:39:12.996Z,99868.00
2018-06-05T23:41:40.592Z,99869.00
2018-06-05T23:44:08.204Z,99871.00
2018-06-05T23:46:35.797Z,99870.00
2018-06-05T23:49:03.418Z,99874.00
2018-06-05T23:51:31.025Z,99877.00
2018-06-05T23:53:58.645Z,99871.00
2018-06-05T23:56:26.304Z,99872.00
2018-06-05T23:58:53.925Z,99874.00
